sensor_id;sensor_type;location;lat;lon;timestamp;P1;durP1;ratioP1;P2;durP2;ratioP2
23990;SDS011;12205;50.600;4.608;2023-02-04T00:00:11;22.33;;;6.50;;
23990;SDS011;12205;50.600;4.608;2023-02-04T00:02:41;33.00;;;8.15;;
23990;SDS011;12205;50.600;4.608;2023-02-04T00:05:09;26.30;;;7.25;;
23990;SDS011;12205;50.600;4.608;2023-02-04T00:07:37;23.70;;;7.53;;
23990;SDS011;12205;50.600;4.608;2023-02-04T00:10:05;28.33;;;7.93;;
23990;SDS011;12205;50.600;4.608;2023-02-04T00:12:33;26.15;;;7.45;;
23990;SDS011;12205;50.600;4.608;2023-02-04T00:15:01;23.73;;;6.63;;
23990;SDS011;12205;50.600;4.608;2023-02-04T00:17:29;20.05;;;6.97;;
23990;SDS011;12205;50.600;4.608;2023-02-04T00:19:57;31.38;;;7.60;;
23990;SDS011;12205;50.600;4.608;2023-02-04T00:22:24;24.70;;;7.38;;
23990;SDS011;12205;50.600;4.608;2023-02-04T00:24:53;27.42;;;6.80;;
23990;SDS011;12205;50.600;4.608;2023-02-04T00:27:20;28.88;;;7.35;;
23990;SDS011;12205;50.600;4.608;2023-02-04T00:29:48;26.98;;;7.88;;
23990;SDS011;12205;50.600;4.608;2023-02-04T00:32:16;23.30;;;6.95;;
23990;SDS011;12205;50.600;4.608;2023-02-04T00:34:44;26.70;;;7.32;;
23990;SDS011;12205;50.600;4.608;2023-02-04T00:37:11;21.85;;;6.78;;
23990;SDS011;12205;50.600;4.608;2023-02-04T00:39:38;21.60;;;6.63;;
23990;SDS011;12205;50.600;4.608;2023-02-04T00:42:05;26.33;;;6.60;;
23990;SDS011;12205;50.600;4.608;2023-02-04T00:44:34;24.75;;;6.35;;
23990;SDS011;12205;50.600;4.608;2023-02-04T00:47:02;34.03;;;7.88;;
23990;SDS011;12205;50.600;4.608;2023-02-04T00:49:31;21.13;;;6.22;;
23990;SDS011;12205;50.600;4.608;2023-02-04T00:51:59;26.83;;;6.95;;
23990;SDS011;12205;50.600;4.608;2023-02-04T00:54:26;23.58;;;6.88;;
23990;SDS011;12205;50.600;4.608;2023-02-04T00:56:54;26.50;;;7.07;;
23990;SDS011;12205;50.600;4.608;2023-02-04T00:59:21;25.02;;;6.93;;
23990;SDS011;12205;50.600;4.608;2023-02-04T01:01:49;30.02;;;6.78;;
23990;SDS011;12205;50.600;4.608;2023-02-04T01:04:16;22.95;;;6.53;;
23990;SDS011;12205;50.600;4.608;2023-02-04T01:06:45;28.02;;;7.25;;
23990;SDS011;12205;50.600;4.608;2023-02-04T01:09:12;23.23;;;6.50;;
23990;SDS011;12205;50.600;4.608;2023-02-04T01:11:39;28.20;;;7.68;;
23990;SDS011;12205;50.600;4.608;2023-02-04T01:14:06;24.08;;;7.50;;
23990;SDS011;12205;50.600;4.608;2023-02-04T01:16:33;26.08;;;7.07;;
23990;SDS011;12205;50.600;4.608;2023-02-04T01:19:01;31.13;;;8.02;;
23990;SDS011;12205;50.600;4.608;2023-02-04T01:21:28;30.08;;;7.70;;
23990;SDS011;12205;50.600;4.608;2023-02-04T01:23:57;24.63;;;6.85;;
23990;SDS011;12205;50.600;4.608;2023-02-04T01:26:25;22.92;;;7.18;;
23990;SDS011;12205;50.600;4.608;2023-02-04T01:28:53;31.52;;;8.05;;
23990;SDS011;12205;50.600;4.608;2023-02-04T01:31:20;29.10;;;7.32;;
23990;SDS011;12205;50.600;4.608;2023-02-04T01:33:47;23.38;;;7.05;;
23990;SDS011;12205;50.600;4.608;2023-02-04T01:36:16;25.27;;;7.65;;
23990;SDS011;12205;50.600;4.608;2023-02-04T01:38:45;26.30;;;7.93;;
23990;SDS011;12205;50.600;4.608;2023-02-04T01:41:14;26.83;;;8.52;;
23990;SDS011;12205;50.600;4.608;2023-02-04T01:43:43;31.77;;;8.43;;
23990;SDS011;12205;50.600;4.608;2023-02-04T01:46:11;26.58;;;8.15;;
23990;SDS011;12205;50.600;4.608;2023-02-04T01:48:38;27.65;;;7.75;;
23990;SDS011;12205;50.600;4.608;2023-02-04T01:51:07;30.52;;;8.77;;
23990;SDS011;12205;50.600;4.608;2023-02-04T01:53:39;24.35;;;8.00;;
23990;SDS011;12205;50.600;4.608;2023-02-04T01:56:10;19.25;;;6.90;;
23990;SDS011;12205;50.600;4.608;2023-02-04T01:58:45;25.17;;;7.80;;
23990;SDS011;12205;50.600;4.608;2023-02-04T02:01:13;31.25;;;8.35;;
23990;SDS011;12205;50.600;4.608;2023-02-04T02:03:58;27.08;;;7.90;;
23990;SDS011;12205;50.600;4.608;2023-02-04T02:06:26;26.33;;;8.20;;
23990;SDS011;12205;50.600;4.608;2023-02-04T02:08:54;24.85;;;8.52;;
23990;SDS011;12205;50.600;4.608;2023-02-04T02:11:23;29.02;;;8.45;;
23990;SDS011;12205;50.600;4.608;2023-02-04T02:13:52;26.17;;;8.18;;
23990;SDS011;12205;50.600;4.608;2023-02-04T02:16:20;24.95;;;8.60;;
23990;SDS011;12205;50.600;4.608;2023-02-04T02:18:47;26.20;;;8.35;;
23990;SDS011;12205;50.600;4.608;2023-02-04T02:21:18;30.88;;;9.05;;
23990;SDS011;12205;50.600;4.608;2023-02-04T02:23:57;29.65;;;8.70;;
23990;SDS011;12205;50.600;4.608;2023-02-04T02:26:26;32.00;;;8.65;;
23990;SDS011;12205;50.600;4.608;2023-02-04T02:28:53;33.35;;;8.55;;
23990;SDS011;12205;50.600;4.608;2023-02-04T02:31:21;25.77;;;7.68;;
23990;SDS011;12205;50.600;4.608;2023-02-04T02:33:48;28.42;;;8.82;;
23990;SDS011;12205;50.600;4.608;2023-02-04T02:36:16;32.05;;;10.25;;
23990;SDS011;12205;50.600;4.608;2023-02-04T02:38:44;29.95;;;8.52;;
23990;SDS011;12205;50.600;4.608;2023-02-04T02:41:12;25.10;;;8.30;;
23990;SDS011;12205;50.600;4.608;2023-02-04T02:43:39;37.72;;;9.25;;
23990;SDS011;12205;50.600;4.608;2023-02-04T02:46:07;30.33;;;9.30;;
23990;SDS011;12205;50.600;4.608;2023-02-04T02:48:34;30.60;;;8.60;;
23990;SDS011;12205;50.600;4.608;2023-02-04T02:51:01;28.73;;;8.93;;
23990;SDS011;12205;50.600;4.608;2023-02-04T02:53:30;28.80;;;8.77;;
23990;SDS011;12205;50.600;4.608;2023-02-04T02:55:57;25.88;;;8.57;;
23990;SDS011;12205;50.600;4.608;2023-02-04T02:58:28;29.23;;;8.82;;
23990;SDS011;12205;50.600;4.608;2023-02-04T03:00:58;32.67;;;9.13;;
23990;SDS011;12205;50.600;4.608;2023-02-04T03:03:27;28.67;;;8.15;;
23990;SDS011;12205;50.600;4.608;2023-02-04T03:05:59;27.20;;;8.95;;
23990;SDS011;12205;50.600;4.608;2023-02-04T03:08:34;30.85;;;8.65;;
23990;SDS011;12205;50.600;4.608;2023-02-04T03:11:02;22.10;;;7.32;;
23990;SDS011;12205;50.600;4.608;2023-02-04T03:13:31;22.17;;;8.02;;
23990;SDS011;12205;50.600;4.608;2023-02-04T03:15:59;28.33;;;8.63;;
23990;SDS011;12205;50.600;4.608;2023-02-04T03:18:27;23.42;;;7.47;;
23990;SDS011;12205;50.600;4.608;2023-02-04T03:20:55;23.35;;;8.00;;
23990;SDS011;12205;50.600;4.608;2023-02-04T03:23:23;24.63;;;7.85;;
23990;SDS011;12205;50.600;4.608;2023-02-04T03:25:51;22.88;;;8.30;;
23990;SDS011;12205;50.600;4.608;2023-02-04T03:28:19;22.27;;;7.50;;
23990;SDS011;12205;50.600;4.608;2023-02-04T03:30:48;20.80;;;6.97;;
23990;SDS011;12205;50.600;4.608;2023-02-04T03:33:20;22.25;;;6.95;;
23990;SDS011;12205;50.600;4.608;2023-02-04T03:35:48;21.95;;;7.50;;
23990;SDS011;12205;50.600;4.608;2023-02-04T03:38:16;24.38;;;7.63;;
23990;SDS011;12205;50.600;4.608;2023-02-04T03:40:43;18.55;;;6.25;;
23990;SDS011;12205;50.600;4.608;2023-02-04T03:43:10;12.55;;;3.72;;
23990;SDS011;12205;50.600;4.608;2023-02-04T03:45:38;7.63;;;2.63;;
23990;SDS011;12205;50.600;4.608;2023-02-04T03:48:06;7.20;;;2.20;;
23990;SDS011;12205;50.600;4.608;2023-02-04T03:50:33;5.00;;;2.03;;
23990;SDS011;12205;50.600;4.608;2023-02-04T03:53:00;12.38;;;3.00;;
23990;SDS011;12205;50.600;4.608;2023-02-04T03:55:27;5.50;;;2.35;;
23990;SDS011;12205;50.600;4.608;2023-02-04T03:57:56;5.85;;;2.10;;
23990;SDS011;12205;50.600;4.608;2023-02-04T04:00:23;5.38;;;2.10;;
23990;SDS011;12205;50.600;4.608;2023-02-04T04:02:50;4.75;;;1.95;;
23990;SDS011;12205;50.600;4.608;2023-02-04T04:05:19;6.15;;;2.40;;
23990;SDS011;12205;50.600;4.608;2023-02-04T04:07:46;6.03;;;2.22;;
23990;SDS011;12205;50.600;4.608;2023-02-04T04:10:13;5.07;;;1.98;;
23990;SDS011;12205;50.600;4.608;2023-02-04T04:12:41;7.22;;;2.33;;
23990;SDS011;12205;50.600;4.608;2023-02-04T04:15:08;5.88;;;2.58;;
23990;SDS011;12205;50.600;4.608;2023-02-04T04:17:36;8.05;;;2.42;;
23990;SDS011;12205;50.600;4.608;2023-02-04T04:20:03;5.57;;;2.22;;
23990;SDS011;12205;50.600;4.608;2023-02-04T04:22:33;9.75;;;2.92;;
23990;SDS011;12205;50.600;4.608;2023-02-04T04:25:00;5.95;;;2.30;;
23990;SDS011;12205;50.600;4.608;2023-02-04T04:27:27;6.75;;;2.50;;
23990;SDS011;12205;50.600;4.608;2023-02-04T04:29:55;7.05;;;2.50;;
23990;SDS011;12205;50.600;4.608;2023-02-04T04:32:22;7.65;;;2.78;;
23990;SDS011;12205;50.600;4.608;2023-02-04T04:34:49;7.65;;;2.65;;
23990;SDS011;12205;50.600;4.608;2023-02-04T04:37:17;6.90;;;3.08;;
23990;SDS011;12205;50.600;4.608;2023-02-04T04:39:45;6.30;;;2.33;;
23990;SDS011;12205;50.600;4.608;2023-02-04T04:42:12;7.40;;;2.80;;
23990;SDS011;12205;50.600;4.608;2023-02-04T04:44:39;9.63;;;3.13;;
23990;SDS011;12205;50.600;4.608;2023-02-04T04:47:07;7.72;;;2.63;;
23990;SDS011;12205;50.600;4.608;2023-02-04T04:49:34;7.35;;;2.72;;
23990;SDS011;12205;50.600;4.608;2023-02-04T04:52:01;7.50;;;2.60;;
23990;SDS011;12205;50.600;4.608;2023-02-04T04:54:29;7.72;;;2.67;;
23990;SDS011;12205;50.600;4.608;2023-02-04T04:56:57;8.18;;;2.95;;
23990;SDS011;12205;50.600;4.608;2023-02-04T04:59:24;7.72;;;2.95;;
23990;SDS011;12205;50.600;4.608;2023-02-04T05:01:51;6.75;;;2.50;;
23990;SDS011;12205;50.600;4.608;2023-02-04T05:04:19;6.95;;;2.60;;
23990;SDS011;12205;50.600;4.608;2023-02-04T05:06:46;7.50;;;2.60;;
23990;SDS011;12205;50.600;4.608;2023-02-04T05:09:13;6.50;;;2.35;;
23990;SDS011;12205;50.600;4.608;2023-02-04T05:11:41;6.65;;;2.20;;
23990;SDS011;12205;50.600;4.608;2023-02-04T05:14:10;5.75;;;2.40;;
23990;SDS011;12205;50.600;4.608;2023-02-04T05:16:37;6.22;;;2.60;;
23990;SDS011;12205;50.600;4.608;2023-02-04T05:19:04;7.13;;;2.63;;
23990;SDS011;12205;50.600;4.608;2023-02-04T05:21:31;7.63;;;2.58;;
23990;SDS011;12205;50.600;4.608;2023-02-04T05:23:58;6.72;;;2.45;;
23990;SDS011;12205;50.600;4.608;2023-02-04T05:26:25;10.48;;;3.40;;
23990;SDS011;12205;50.600;4.608;2023-02-04T05:28:53;8.18;;;2.60;;
23990;SDS011;12205;50.600;4.608;2023-02-04T05:31:21;5.50;;;2.17;;
23990;SDS011;12205;50.600;4.608;2023-02-04T05:33:48;5.43;;;2.10;;
23990;SDS011;12205;50.600;4.608;2023-02-04T05:36:16;5.38;;;2.03;;
23990;SDS011;12205;50.600;4.608;2023-02-04T05:38:43;6.57;;;2.42;;
23990;SDS011;12205;50.600;4.608;2023-02-04T05:41:10;6.03;;;2.17;;
23990;SDS011;12205;50.600;4.608;2023-02-04T05:43:38;7.47;;;2.70;;
23990;SDS011;12205;50.600;4.608;2023-02-04T05:46:05;7.00;;;2.45;;
23990;SDS011;12205;50.600;4.608;2023-02-04T05:48:34;11.30;;;3.20;;
23990;SDS011;12205;50.600;4.608;2023-02-04T05:51:01;4.90;;;1.80;;
23990;SDS011;12205;50.600;4.608;2023-02-04T05:53:28;6.45;;;2.30;;
23990;SDS011;12205;50.600;4.608;2023-02-04T05:55:55;6.05;;;2.45;;
23990;SDS011;12205;50.600;4.608;2023-02-04T05:58:23;6.05;;;2.20;;
23990;SDS011;12205;50.600;4.608;2023-02-04T06:00:50;8.23;;;2.50;;
23990;SDS011;12205;50.600;4.608;2023-02-04T06:03:17;8.30;;;2.50;;
23990;SDS011;12205;50.600;4.608;2023-02-04T06:05:47;8.35;;;2.38;;
23990;SDS011;12205;50.600;4.608;2023-02-04T06:08:14;7.07;;;2.40;;
23990;SDS011;12205;50.600;4.608;2023-02-04T06:10:41;8.05;;;3.30;;
23990;SDS011;12205;50.600;4.608;2023-02-04T06:13:08;7.00;;;2.60;;
23990;SDS011;12205;50.600;4.608;2023-02-04T06:15:35;5.43;;;1.98;;
23990;SDS011;12205;50.600;4.608;2023-02-04T06:18:03;7.72;;;2.70;;
23990;SDS011;12205;50.600;4.608;2023-02-04T06:20:30;8.25;;;2.90;;
23990;SDS011;12205;50.600;4.608;2023-02-04T06:22:58;5.22;;;2.00;;
23990;SDS011;12205;50.600;4.608;2023-02-04T06:25:26;6.80;;;2.33;;
23990;SDS011;12205;50.600;4.608;2023-02-04T06:27:53;6.72;;;2.53;;
23990;SDS011;12205;50.600;4.608;2023-02-04T06:30:20;6.15;;;2.38;;
23990;SDS011;12205;50.600;4.608;2023-02-04T06:32:47;7.45;;;2.80;;
23990;SDS011;12205;50.600;4.608;2023-02-04T06:35:14;6.47;;;2.20;;
23990;SDS011;12205;50.600;4.608;2023-02-04T06:37:42;6.78;;;2.50;;
23990;SDS011;12205;50.600;4.608;2023-02-04T06:40:11;4.78;;;1.98;;
23990;SDS011;12205;50.600;4.608;2023-02-04T06:42:38;6.38;;;2.22;;
23990;SDS011;12205;50.600;4.608;2023-02-04T06:45:06;6.40;;;2.22;;
23990;SDS011;12205;50.600;4.608;2023-02-04T06:47:33;6.85;;;2.30;;
23990;SDS011;12205;50.600;4.608;2023-02-04T06:50:00;6.32;;;2.30;;
23990;SDS011;12205;50.600;4.608;2023-02-04T06:52:28;9.60;;;2.85;;
23990;SDS011;12205;50.600;4.608;2023-02-04T06:54:55;6.43;;;2.42;;
23990;SDS011;12205;50.600;4.608;2023-02-04T06:57:23;6.80;;;2.20;;
23990;SDS011;12205;50.600;4.608;2023-02-04T06:59:50;6.13;;;2.20;;
23990;SDS011;12205;50.600;4.608;2023-02-04T07:02:18;6.75;;;2.30;;
23990;SDS011;12205;50.600;4.608;2023-02-04T07:04:45;5.90;;;2.13;;
23990;SDS011;12205;50.600;4.608;2023-02-04T07:07:13;4.82;;;1.70;;
23990;SDS011;12205;50.600;4.608;2023-02-04T07:09:40;5.95;;;2.10;;
23990;SDS011;12205;50.600;4.608;2023-02-04T07:12:07;7.70;;;2.53;;
23990;SDS011;12205;50.600;4.608;2023-02-04T07:14:36;7.40;;;2.38;;
23990;SDS011;12205;50.600;4.608;2023-02-04T07:17:03;8.48;;;2.33;;
23990;SDS011;12205;50.600;4.608;2023-02-04T07:19:30;6.55;;;2.53;;
23990;SDS011;12205;50.600;4.608;2023-02-04T07:21:57;7.05;;;2.63;;
23990;SDS011;12205;50.600;4.608;2023-02-04T07:24:25;5.95;;;2.13;;
23990;SDS011;12205;50.600;4.608;2023-02-04T07:26:52;8.25;;;2.38;;
23990;SDS011;12205;50.600;4.608;2023-02-04T07:29:19;6.28;;;2.08;;
23990;SDS011;12205;50.600;4.608;2023-02-04T07:31:48;5.38;;;1.90;;
23990;SDS011;12205;50.600;4.608;2023-02-04T07:34:17;5.20;;;1.80;;
23990;SDS011;12205;50.600;4.608;2023-02-04T07:36:44;6.57;;;2.50;;
23990;SDS011;12205;50.600;4.608;2023-02-04T07:39:11;6.55;;;2.35;;
23990;SDS011;12205;50.600;4.608;2023-02-04T07:41:38;8.20;;;2.53;;
23990;SDS011;12205;50.600;4.608;2023-02-04T07:44:06;6.50;;;2.75;;
23990;SDS011;12205;50.600;4.608;2023-02-04T07:46:33;7.60;;;2.50;;
23990;SDS011;12205;50.600;4.608;2023-02-04T07:49:01;8.57;;;2.55;;
23990;SDS011;12205;50.600;4.608;2023-02-04T07:51:29;7.82;;;2.30;;
23990;SDS011;12205;50.600;4.608;2023-02-04T07:53:56;10.70;;;3.40;;
23990;SDS011;12205;50.600;4.608;2023-02-04T07:56:23;11.20;;;3.63;;
23990;SDS011;12205;50.600;4.608;2023-02-04T07:58:50;12.35;;;3.78;;
23990;SDS011;12205;50.600;4.608;2023-02-04T08:01:17;13.00;;;3.42;;
23990;SDS011;12205;50.600;4.608;2023-02-04T08:03:44;11.27;;;3.03;;
23990;SDS011;12205;50.600;4.608;2023-02-04T08:06:13;12.10;;;4.30;;
23990;SDS011;12205;50.600;4.608;2023-02-04T08:08:41;15.32;;;3.60;;
23990;SDS011;12205;50.600;4.608;2023-02-04T08:11:08;9.02;;;3.00;;
23990;SDS011;12205;50.600;4.608;2023-02-04T08:13:35;9.23;;;2.88;;
23990;SDS011;12205;50.600;4.608;2023-02-04T08:16:03;10.57;;;3.28;;
23990;SDS011;12205;50.600;4.608;2023-02-04T08:18:30;9.52;;;3.20;;
23990;SDS011;12205;50.600;4.608;2023-02-04T08:20:58;10.05;;;3.30;;
23990;SDS011;12205;50.600;4.608;2023-02-04T08:23:27;10.30;;;3.50;;
23990;SDS011;12205;50.600;4.608;2023-02-04T08:25:55;8.95;;;3.03;;
23990;SDS011;12205;50.600;4.608;2023-02-04T08:28:22;8.18;;;3.28;;
23990;SDS011;12205;50.600;4.608;2023-02-04T08:30:49;7.10;;;2.47;;
23990;SDS011;12205;50.600;4.608;2023-02-04T08:33:17;7.93;;;2.45;;
23990;SDS011;12205;50.600;4.608;2023-02-04T08:35:46;7.35;;;2.40;;
23990;SDS011;12205;50.600;4.608;2023-02-04T08:38:13;7.20;;;2.40;;
23990;SDS011;12205;50.600;4.608;2023-02-04T08:40:43;7.65;;;2.58;;
23990;SDS011;12205;50.600;4.608;2023-02-04T08:43:10;6.88;;;2.20;;
23990;SDS011;12205;50.600;4.608;2023-02-04T08:45:37;9.25;;;2.35;;
23990;SDS011;12205;50.600;4.608;2023-02-04T08:48:05;7.22;;;2.10;;
23990;SDS011;12205;50.600;4.608;2023-02-04T08:50:33;8.38;;;2.75;;
23990;SDS011;12205;50.600;4.608;2023-02-04T08:53:00;8.02;;;2.55;;
23990;SDS011;12205;50.600;4.608;2023-02-04T08:55:28;8.93;;;2.72;;
23990;SDS011;12205;50.600;4.608;2023-02-04T08:57:56;8.35;;;2.53;;
23990;SDS011;12205;50.600;4.608;2023-02-04T09:00:25;8.05;;;2.30;;
23990;SDS011;12205;50.600;4.608;2023-02-04T09:02:52;10.25;;;2.55;;
23990;SDS011;12205;50.600;4.608;2023-02-04T09:05:20;8.30;;;2.40;;
23990;SDS011;12205;50.600;4.608;2023-02-04T09:07:47;7.40;;;1.88;;
23990;SDS011;12205;50.600;4.608;2023-02-04T09:10:14;13.00;;;2.22;;
23990;SDS011;12205;50.600;4.608;2023-02-04T09:12:42;17.13;;;2.80;;
23990;SDS011;12205;50.600;4.608;2023-02-04T09:15:11;11.15;;;1.90;;
23990;SDS011;12205;50.600;4.608;2023-02-04T09:17:38;9.07;;;2.35;;
23990;SDS011;12205;50.600;4.608;2023-02-04T09:20:08;11.27;;;2.03;;
23990;SDS011;12205;50.600;4.608;2023-02-04T09:22:37;13.30;;;2.53;;
23990;SDS011;12205;50.600;4.608;2023-02-04T09:25:04;10.00;;;2.10;;
23990;SDS011;12205;50.600;4.608;2023-02-04T09:27:33;9.95;;;2.20;;
23990;SDS011;12205;50.600;4.608;2023-02-04T09:30:00;18.08;;;2.58;;
23990;SDS011;12205;50.600;4.608;2023-02-04T09:32:28;15.20;;;2.88;;
23990;SDS011;12205;50.600;4.608;2023-02-04T09:34:55;9.32;;;2.47;;
23990;SDS011;12205;50.600;4.608;2023-02-04T09:37:23;12.98;;;2.20;;
23990;SDS011;12205;50.600;4.608;2023-02-04T09:39:51;17.75;;;3.90;;
23990;SDS011;12205;50.600;4.608;2023-02-04T09:42:18;13.95;;;2.20;;
23990;SDS011;12205;50.600;4.608;2023-02-04T09:44:51;7.00;;;1.70;;
23990;SDS011;12205;50.600;4.608;2023-02-04T09:47:18;14.35;;;2.55;;
23990;SDS011;12205;50.600;4.608;2023-02-04T09:49:51;9.25;;;2.28;;
23990;SDS011;12205;50.600;4.608;2023-02-04T09:52:19;7.47;;;1.73;;
23990;SDS011;12205;50.600;4.608;2023-02-04T09:54:48;9.73;;;1.80;;
23990;SDS011;12205;50.600;4.608;2023-02-04T09:57:17;12.18;;;2.10;;
23990;SDS011;12205;50.600;4.608;2023-02-04T09:59:45;11.85;;;2.20;;
23990;SDS011;12205;50.600;4.608;2023-02-04T10:02:22;9.10;;;1.65;;
23990;SDS011;12205;50.600;4.608;2023-02-04T10:04:54;10.88;;;2.05;;
23990;SDS011;12205;50.600;4.608;2023-02-04T10:07:23;7.65;;;2.00;;
23990;SDS011;12205;50.600;4.608;2023-02-04T10:09:52;8.07;;;1.60;;
23990;SDS011;12205;50.600;4.608;2023-02-04T10:12:20;12.50;;;1.80;;
23990;SDS011;12205;50.600;4.608;2023-02-04T10:14:47;8.10;;;1.42;;
23990;SDS011;12205;50.600;4.608;2023-02-04T10:17:16;8.43;;;1.52;;
23990;SDS011;12205;50.600;4.608;2023-02-04T10:19:47;5.43;;;1.30;;
23990;SDS011;12205;50.600;4.608;2023-02-04T10:22:17;6.90;;;1.42;;
23990;SDS011;12205;50.600;4.608;2023-02-04T10:24:47;6.80;;;1.27;;
23990;SDS011;12205;50.600;4.608;2023-02-04T10:27:14;6.28;;;1.75;;
23990;SDS011;12205;50.600;4.608;2023-02-04T10:29:42;7.82;;;1.50;;
23990;SDS011;12205;50.600;4.608;2023-02-04T10:32:25;10.32;;;2.10;;
23990;SDS011;12205;50.600;4.608;2023-02-04T10:34:58;14.23;;;2.42;;
23990;SDS011;12205;50.600;4.608;2023-02-04T10:37:29;7.68;;;1.50;;
23990;SDS011;12205;50.600;4.608;2023-02-04T10:39:56;11.00;;;1.67;;
23990;SDS011;12205;50.600;4.608;2023-02-04T10:42:24;7.18;;;1.80;;
23990;SDS011;12205;50.600;4.608;2023-02-04T10:44:53;11.18;;;2.00;;
23990;SDS011;12205;50.600;4.608;2023-02-04T10:47:22;8.05;;;1.60;;
23990;SDS011;12205;50.600;4.608;2023-02-04T10:49:52;5.78;;;1.38;;
23990;SDS011;12205;50.600;4.608;2023-02-04T10:52:23;4.03;;;1.02;;
23990;SDS011;12205;50.600;4.608;2023-02-04T10:54:59;9.77;;;1.38;;
23990;SDS011;12205;50.600;4.608;2023-02-04T10:57:28;10.88;;;1.48;;
23990;SDS011;12205;50.600;4.608;2023-02-04T11:00:05;4.28;;;1.08;;
23990;SDS011;12205;50.600;4.608;2023-02-04T11:02:42;4.72;;;1.27;;
23990;SDS011;12205;50.600;4.608;2023-02-04T11:05:15;3.90;;;1.00;;
23990;SDS011;12205;50.600;4.608;2023-02-04T11:07:46;6.77;;;1.80;;
23990;SDS011;12205;50.600;4.608;2023-02-04T11:10:15;5.53;;;1.20;;
23990;SDS011;12205;50.600;4.608;2023-02-04T11:12:45;7.55;;;1.10;;
23990;SDS011;12205;50.600;4.608;2023-02-04T11:15:36;5.25;;;1.17;;
23990;SDS011;12205;50.600;4.608;2023-02-04T11:18:09;5.13;;;0.90;;
23990;SDS011;12205;50.600;4.608;2023-02-04T11:20:51;6.25;;;1.02;;
23990;SDS011;12205;50.600;4.608;2023-02-04T11:23:32;3.72;;;0.95;;
23990;SDS011;12205;50.600;4.608;2023-02-04T11:26:02;4.60;;;0.98;;
23990;SDS011;12205;50.600;4.608;2023-02-04T11:28:38;2.92;;;0.88;;
23990;SDS011;12205;50.600;4.608;2023-02-04T11:31:28;3.33;;;0.90;;
23990;SDS011;12205;50.600;4.608;2023-02-04T11:34:11;3.65;;;0.75;;
23990;SDS011;12205;50.600;4.608;2023-02-04T11:36:56;5.75;;;0.90;;
23990;SDS011;12205;50.600;4.608;2023-02-04T11:39:40;4.57;;;1.10;;
23990;SDS011;12205;50.600;4.608;2023-02-04T11:42:18;6.25;;;1.15;;
23990;SDS011;12205;50.600;4.608;2023-02-04T11:44:52;2.63;;;1.13;;
23990;SDS011;12205;50.600;4.608;2023-02-04T11:47:23;4.88;;;1.20;;
23990;SDS011;12205;50.600;4.608;2023-02-04T11:49:53;3.53;;;1.33;;
23990;SDS011;12205;50.600;4.608;2023-02-04T11:52:24;5.63;;;1.00;;
23990;SDS011;12205;50.600;4.608;2023-02-04T11:54:56;2.38;;;0.95;;
23990;SDS011;12205;50.600;4.608;2023-02-04T11:57:25;4.47;;;1.25;;
23990;SDS011;12205;50.600;4.608;2023-02-04T11:59:53;2.78;;;1.00;;
23990;SDS011;12205;50.600;4.608;2023-02-04T12:02:21;3.30;;;1.20;;
23990;SDS011;12205;50.600;4.608;2023-02-04T12:04:52;2.55;;;0.90;;
23990;SDS011;12205;50.600;4.608;2023-02-04T12:07:25;7.15;;;1.27;;
23990;SDS011;12205;50.600;4.608;2023-02-04T12:09:56;2.78;;;1.10;;
23990;SDS011;12205;50.600;4.608;2023-02-04T12:12:25;7.13;;;1.42;;
23990;SDS011;12205;50.600;4.608;2023-02-04T12:15:00;2.10;;;0.87;;
23990;SDS011;12205;50.600;4.608;2023-02-04T12:17:34;2.03;;;0.80;;
23990;SDS011;12205;50.600;4.608;2023-02-04T12:20:01;12.75;;;1.45;;
23990;SDS011;12205;50.600;4.608;2023-02-04T12:22:29;2.70;;;0.65;;
23990;SDS011;12205;50.600;4.608;2023-02-04T12:24:57;2.35;;;1.00;;
23990;SDS011;12205;50.600;4.608;2023-02-04T12:27:24;2.75;;;0.90;;
23990;SDS011;12205;50.600;4.608;2023-02-04T12:29:51;2.80;;;0.68;;
23990;SDS011;12205;50.600;4.608;2023-02-04T12:32:19;2.40;;;0.73;;
23990;SDS011;12205;50.600;4.608;2023-02-04T12:34:46;4.32;;;1.05;;
23990;SDS011;12205;50.600;4.608;2023-02-04T12:37:13;3.67;;;0.90;;
23990;SDS011;12205;50.600;4.608;2023-02-04T12:39:40;5.35;;;1.17;;
23990;SDS011;12205;50.600;4.608;2023-02-04T12:42:09;4.97;;;0.90;;
23990;SDS011;12205;50.600;4.608;2023-02-04T12:44:36;2.60;;;1.20;;
23990;SDS011;12205;50.600;4.608;2023-02-04T12:47:03;4.95;;;1.13;;
23990;SDS011;12205;50.600;4.608;2023-02-04T12:49:31;3.17;;;1.10;;
23990;SDS011;12205;50.600;4.608;2023-02-04T12:51:58;3.15;;;1.10;;
23990;SDS011;12205;50.600;4.608;2023-02-04T12:54:26;3.38;;;1.30;;
23990;SDS011;12205;50.600;4.608;2023-02-04T12:56:53;3.85;;;1.13;;
23990;SDS011;12205;50.600;4.608;2023-02-04T12:59:23;3.53;;;1.13;;
23990;SDS011;12205;50.600;4.608;2023-02-04T13:01:51;2.80;;;1.20;;
23990;SDS011;12205;50.600;4.608;2023-02-04T13:04:18;4.78;;;1.52;;
23990;SDS011;12205;50.600;4.608;2023-02-04T13:06:45;3.97;;;1.27;;
23990;SDS011;12205;50.600;4.608;2023-02-04T13:09:13;3.17;;;1.30;;
23990;SDS011;12205;50.600;4.608;2023-02-04T13:11:40;6.68;;;1.83;;
23990;SDS011;12205;50.600;4.608;2023-02-04T13:14:07;7.47;;;2.13;;
23990;SDS011;12205;50.600;4.608;2023-02-04T13:16:36;6.22;;;1.80;;
23990;SDS011;12205;50.600;4.608;2023-02-04T13:19:03;10.63;;;2.63;;
23990;SDS011;12205;50.600;4.608;2023-02-04T13:21:30;6.43;;;2.00;;
23990;SDS011;12205;50.600;4.608;2023-02-04T13:23:57;7.82;;;2.53;;
23990;SDS011;12205;50.600;4.608;2023-02-04T13:26:25;7.00;;;2.35;;
23990;SDS011;12205;50.600;4.608;2023-02-04T13:28:52;20.23;;;5.40;;
23990;SDS011;12205;50.600;4.608;2023-02-04T13:31:19;25.70;;;7.20;;
23990;SDS011;12205;50.600;4.608;2023-02-04T13:33:48;7.15;;;2.80;;
23990;SDS011;12205;50.600;4.608;2023-02-04T13:36:15;5.20;;;2.33;;
23990;SDS011;12205;50.600;4.608;2023-02-04T13:38:42;5.55;;;1.95;;
23990;SDS011;12205;50.600;4.608;2023-02-04T13:41:09;7.03;;;2.70;;
23990;SDS011;12205;50.600;4.608;2023-02-04T13:43:36;7.85;;;2.55;;
23990;SDS011;12205;50.600;4.608;2023-02-04T13:46:04;7.90;;;2.50;;
23990;SDS011;12205;50.600;4.608;2023-02-04T13:48:31;18.45;;;5.47;;
23990;SDS011;12205;50.600;4.608;2023-02-04T13:50:59;14.63;;;3.80;;
23990;SDS011;12205;50.600;4.608;2023-02-04T13:53:27;10.35;;;3.03;;
23990;SDS011;12205;50.600;4.608;2023-02-04T13:55:55;8.60;;;3.08;;
23990;SDS011;12205;50.600;4.608;2023-02-04T13:58:23;8.43;;;2.95;;
23990;SDS011;12205;50.600;4.608;2023-02-04T14:00:50;6.90;;;2.17;;
23990;SDS011;12205;50.600;4.608;2023-02-04T14:03:21;8.23;;;2.30;;
23990;SDS011;12205;50.600;4.608;2023-02-04T14:05:49;7.75;;;2.60;;
23990;SDS011;12205;50.600;4.608;2023-02-04T14:08:18;8.70;;;2.58;;
23990;SDS011;12205;50.600;4.608;2023-02-04T14:10:46;9.40;;;2.70;;
23990;SDS011;12205;50.600;4.608;2023-02-04T14:13:13;13.60;;;3.80;;
23990;SDS011;12205;50.600;4.608;2023-02-04T14:15:40;10.07;;;3.45;;
23990;SDS011;12205;50.600;4.608;2023-02-04T14:18:08;13.70;;;4.00;;
23990;SDS011;12205;50.600;4.608;2023-02-04T14:20:36;10.60;;;4.18;;
23990;SDS011;12205;50.600;4.608;2023-02-04T14:23:04;16.10;;;5.43;;
23990;SDS011;12205;50.600;4.608;2023-02-04T14:25:32;9.65;;;3.92;;
23990;SDS011;12205;50.600;4.608;2023-02-04T14:28:00;16.02;;;4.85;;
23990;SDS011;12205;50.600;4.608;2023-02-04T14:30:28;19.55;;;5.28;;
23990;SDS011;12205;50.600;4.608;2023-02-04T14:32:56;11.98;;;4.43;;
23990;SDS011;12205;50.600;4.608;2023-02-04T14:35:24;19.00;;;5.03;;
23990;SDS011;12205;50.600;4.608;2023-02-04T14:37:52;13.55;;;4.25;;
23990;SDS011;12205;50.600;4.608;2023-02-04T14:40:19;11.90;;;3.80;;
23990;SDS011;12205;50.600;4.608;2023-02-04T14:42:48;12.27;;;3.30;;
23990;SDS011;12205;50.600;4.608;2023-02-04T14:45:15;8.55;;;3.15;;
23990;SDS011;12205;50.600;4.608;2023-02-04T14:47:43;9.25;;;3.25;;
23990;SDS011;12205;50.600;4.608;2023-02-04T14:50:11;8.57;;;3.00;;